Weather History for Soldotna, AK

Change the Weather History Date:

Saturday, March 23, 2013

  Actual Average Record
Temperature  
Mean Temperature 27 °F -  
Max Temperature 33 °F 35 °F 45 °F (1965)
Min Temperature 21 °F 16 °F -18 °F (1962)
Degree Days  
Heating Degree Days 38    
Moisture  
Dew Point 20 °F    
Average Humidity 64    
Maximum Humidity 93    
Minimum Humidity 55    
Precipitation  
Precipitation 0.00 in - - ()
Sea Level Pressure  
Sea Level Pressure 29.80 in    
Wind  
Wind Speed 6 mph (SW)    
Max Wind Speed 12 mph    
Max Gust Speed 17 mph    
Visibility 10 miles    
Events      
Averages and records for this station are not official NWS values.
T = Trace of Precipitation, MM = Missing Value Source: NWS Daily Summary

Daily Weather History Graph

Daily Weather History Graph

Search for Another Location

Airport:

Trip Planner

Search our weather history database for the weather conditions in past years. The results will help you decide how hot, cold, wet, or windy it might be!

Date:

Astronomy

Mar. 23, 2013 Rise Set
Actual Time 7:54 AM AKDT 8:27 PM AKDT
Civil Twilight 7:12 AM AKDT 9:10 PM AKDT
Nautical Twilight 6:21 AM AKDT 10:02 PM AKDT
Astronomical Twilight 5:23 AM AKDT 10:59 PM AKDT
Moon 4:19 PM AKDT (3/23) 6:27 AM AKDT (3/23)
Length of Visible Light 13h 57m
Length of Day
12h 32m
Waxing Gibbous, 86% of the Moon is Illuminated
Mar 23
Waxing Gibbous
Mar 27
Full
Apr 2
Last Quarter
Apr 10
New
Apr 18
First Quarter

Hourly Weather History & Observations

Time (AKDT) Temp. Windchill Dew Point Humidity Pressure Visibility Wind Dir Wind Speed Gust Speed Precip Events Conditions
12:16 AM 21.2 °F 16.4 °F 19.4 °F 93% 29.81 in 10.0 mi SE 3.5 mph - N/A   Mostly Cloudy
12:36 AM 26.6 °F 21.2 °F 23.0 °F 86% 29.80 in 10.0 mi South 4.6 mph - N/A   Mostly Cloudy
12:56 AM 28.4 °F 24.6 °F 21.2 °F 74% 29.80 in 10.0 mi South 3.5 mph - N/A   Scattered Clouds
1:16 AM 28.4 °F 23.3 °F 21.2 °F 74% 29.80 in 10.0 mi SSW 4.6 mph - N/A   Mostly Cloudy
1:36 AM 28.4 °F 24.6 °F 19.4 °F 69% 29.80 in 10.0 mi WSW 3.5 mph - N/A   Overcast
1:56 AM 28.4 °F 23.3 °F 19.4 °F 69% 29.80 in 10.0 mi WSW 4.6 mph - N/A   Overcast
2:16 AM 28.4 °F 23.3 °F 19.4 °F 69% 29.80 in 10.0 mi SW 4.6 mph - N/A   Overcast
2:36 AM 30.2 °F 25.4 °F 17.6 °F 60% 29.80 in 10.0 mi SW 4.6 mph - N/A   Overcast
2:56 AM 30.2 °F 23.4 °F 17.6 °F 60% 29.79 in 10.0 mi South 6.9 mph - N/A   Overcast
3:16 AM 30.2 °F 23.4 °F 19.4 °F 64% 29.79 in 10.0 mi South 6.9 mph - N/A   Overcast
3:36 AM 30.2 °F 24.3 °F 19.4 °F 64% 29.78 in 10.0 mi South 5.8 mph - N/A   Mostly Cloudy
3:56 AM 28.4 °F 23.3 °F 19.4 °F 69% 29.78 in 10.0 mi South 4.6 mph - N/A   Mostly Cloudy
4:16 AM 30.2 °F 24.3 °F 17.6 °F 60% 29.78 in 10.0 mi South 5.8 mph - N/A   Overcast
4:36 AM 30.2 °F 24.3 °F 17.6 °F 60% 29.78 in 10.0 mi South 5.8 mph - N/A   Partly Cloudy
4:56 AM 28.4 °F 21.2 °F 17.6 °F 64% 29.77 in 10.0 mi South 6.9 mph - N/A   Clear
5:16 AM 28.4 °F 22.2 °F 17.6 °F 64% 29.77 in 10.0 mi SSW 5.8 mph - N/A   Clear
5:36 AM 30.2 °F 24.3 °F 17.6 °F 60% 29.77 in 10.0 mi SSW 5.8 mph - N/A   Clear
5:56 AM 30.2 °F 26.7 °F 17.6 °F 60% 29.77 in 10.0 mi SW 3.5 mph - N/A   Partly Cloudy
6:16 AM 28.4 °F 22.2 °F 17.6 °F 64% 29.77 in 10.0 mi South 5.8 mph - N/A   Mostly Cloudy
6:36 AM 30.2 °F 25.4 °F 19.4 °F 64% 29.77 in 10.0 mi South 4.6 mph - N/A   Overcast
6:56 AM 30.2 °F 23.4 °F 19.4 °F 64% 29.77 in 10.0 mi South 6.9 mph - N/A   Overcast
7:16 AM 30.2 °F 22.6 °F 19.4 °F 64% 29.77 in 10.0 mi South 8.1 mph - N/A   Overcast
7:36 AM 30.2 °F 24.3 °F 19.4 °F 64% 29.77 in 10.0 mi SSW 5.8 mph - N/A   Overcast
7:56 AM 30.2 °F 26.7 °F 19.4 °F 64% 29.78 in 10.0 mi SSW 3.5 mph - N/A   Overcast
8:16 AM 30.2 °F 24.3 °F 19.4 °F 64% 29.78 in 10.0 mi SSW 5.8 mph - N/A   Overcast
8:36 AM 30.2 °F 25.4 °F 19.4 °F 64% 29.78 in 10.0 mi South 4.6 mph - N/A   Overcast
8:56 AM 30.2 °F 25.4 °F 19.4 °F 64% 29.78 in 10.0 mi SSW 4.6 mph - N/A   Overcast
9:16 AM 30.2 °F 23.4 °F 19.4 °F 64% 29.78 in 10.0 mi SW 6.9 mph - N/A   Overcast
9:36 AM 30.2 °F 23.4 °F 19.4 °F 64% 29.79 in 10.0 mi SW 6.9 mph - N/A   Overcast
9:56 AM 30.2 °F 21.9 °F 19.4 °F 64% 29.79 in 10.0 mi SW 9.2 mph - N/A   Overcast
10:16 AM 30.2 °F 22.6 °F 19.4 °F 64% 29.79 in 10.0 mi SW 8.1 mph - N/A   Overcast
10:36 AM 30.2 °F 20.8 °F 19.4 °F 64% 29.79 in 10.0 mi SW 11.5 mph 16.1 mph N/A   Mostly Cloudy
10:56 AM 32.0 °F 23.0 °F 21.2 °F 64% 29.80 in 10.0 mi WSW 11.5 mph 16.1 mph N/A   Scattered Clouds
11:16 AM 32.0 °F 23.0 °F 21.2 °F 64% 29.80 in 10.0 mi WSW 11.5 mph - N/A   Partly Cloudy
11:36 AM 32.0 °F 24.2 °F 19.4 °F 60% 29.81 in 10.0 mi SW 9.2 mph - N/A   Mostly Cloudy
11:56 AM 32.0 °F 24.2 °F 21.2 °F 64% 29.81 in 10.0 mi SW 9.2 mph 17.3 mph N/A   Overcast
12:16 PM 32.0 °F 24.2 °F 21.2 °F 64% 29.81 in 10.0 mi SW 9.2 mph - N/A   Mostly Cloudy
12:36 PM 32.0 °F 23.0 °F 19.4 °F 60% 29.81 in 10.0 mi SW 11.5 mph - N/A   Mostly Cloudy
12:56 PM 33.8 °F 25.3 °F 21.2 °F 60% 29.82 in 10.0 mi WSW 11.5 mph 16.1 mph N/A   Overcast
1:16 PM 33.8 °F 25.8 °F 21.2 °F 60% 29.82 in 10.0 mi West 10.4 mph - N/A   Mostly Cloudy
1:36 PM 33.8 °F 27.0 °F 19.4 °F 56% 29.81 in 10.0 mi West 8.1 mph - N/A   Clear
1:56 PM 33.8 °F 25.8 °F 21.2 °F 60% 29.81 in 10.0 mi WSW 10.4 mph - N/A   Clear
2:16 PM 32.0 °F 23.6 °F 21.2 °F 64% 29.81 in 10.0 mi West 10.4 mph - N/A   Clear
2:36 PM 33.8 °F 27.0 °F 21.2 °F 60% 29.81 in 10.0 mi WNW 8.1 mph - N/A   Partly Cloudy
2:56 PM 33.8 °F 25.3 °F 21.2 °F 60% 29.81 in 10.0 mi West 11.5 mph - N/A   Mostly Cloudy
3:16 PM 32.0 °F 24.2 °F 21.2 °F 64% 29.81 in 10.0 mi West 9.2 mph - N/A   Mostly Cloudy
3:36 PM 33.8 °F 27.7 °F 21.2 °F 60% 29.81 in 10.0 mi WNW 6.9 mph - N/A   Scattered Clouds
3:56 PM 32.0 °F 24.8 °F 21.2 °F 64% 29.81 in 10.0 mi West 8.1 mph - N/A   Mostly Cloudy
4:16 PM 32.0 °F 24.8 °F 21.2 °F 64% 29.81 in 10.0 mi West 8.1 mph - N/A   Mostly Cloudy
4:36 PM 33.8 °F 27.7 °F 21.2 °F 60% 29.81 in 10.0 mi WNW 6.9 mph - N/A   Overcast
4:56 PM 33.8 °F 27.7 °F 21.2 °F 60% 29.81 in 10.0 mi West 6.9 mph - N/A   Overcast
5:16 PM 33.8 °F 28.6 °F 21.2 °F 60% 29.82 in 10.0 mi North 5.8 mph - N/A   Overcast
5:36 PM 32.0 °F 26.4 °F 21.2 °F 64% 29.82 in 10.0 mi NNE 5.8 mph - N/A   Overcast
5:56 PM 32.0 °F 28.7 °F 21.2 °F 64% 29.82 in 10.0 mi NNE 3.5 mph - N/A   Overcast
6:16 PM 32.0 °F 26.4 °F 21.2 °F 64% 29.81 in 10.0 mi NNE 5.8 mph - N/A   Overcast
6:36 PM 32.0 °F 27.5 °F 21.2 °F 64% 29.81 in 10.0 mi NNE 4.6 mph - N/A   Overcast
6:56 PM 32.0 °F 25.6 °F 21.2 °F 64% 29.81 in 10.0 mi NE 6.9 mph - N/A   Overcast
7:16 PM 30.2 °F 23.4 °F 19.4 °F 64% 29.81 in 10.0 mi NNE 6.9 mph - N/A   Overcast
7:36 PM 30.2 °F 23.4 °F 19.4 °F 64% 29.81 in 10.0 mi NNE 6.9 mph - N/A   Overcast
7:56 PM 30.2 °F 24.3 °F 19.4 °F 64% 29.82 in 10.0 mi NE 5.8 mph - N/A   Overcast
8:16 PM 30.2 °F 23.4 °F 19.4 °F 64% 29.82 in 10.0 mi NNE 6.9 mph - N/A   Overcast
8:36 PM 30.2 °F 24.3 °F 19.4 °F 64% 29.83 in 10.0 mi NE 5.8 mph - N/A   Overcast
8:56 PM 28.4 °F 23.3 °F 17.6 °F 64% 29.83 in 10.0 mi NNE 4.6 mph - N/A   Overcast
9:16 PM 28.4 °F 23.3 °F 17.6 °F 64% 29.83 in 10.0 mi NE 4.6 mph - N/A   Overcast
9:36 PM 28.4 °F 22.2 °F 19.4 °F 69% 29.83 in 10.0 mi NE 5.8 mph - N/A   Overcast
9:56 PM 28.4 °F 20.4 °F 19.4 °F 69% 29.84 in 10.0 mi NE 8.1 mph - N/A   Overcast
10:16 PM 28.4 °F 23.3 °F 17.6 °F 64% 29.84 in 10.0 mi NE 4.6 mph - N/A   Overcast
10:36 PM 26.6 °F 21.2 °F 17.6 °F 69% 29.84 in 10.0 mi NNE 4.6 mph - N/A   Overcast
10:56 PM 26.6 °F - 17.6 °F 69% 29.84 in 10.0 mi Calm Calm - N/A   Overcast
11:16 PM 26.6 °F 20.0 °F 17.6 °F 69% 29.84 in 10.0 mi NE 5.8 mph - N/A   Overcast
11:36 PM 26.6 °F 18.2 °F 15.8 °F 64% 29.84 in 10.0 mi NE 8.1 mph - N/A   Overcast
11:56 PM 26.6 °F 18.2 °F 12.2 °F 55% 29.84 in 10.0 mi NE 8.1 mph - N/A   Overcast